Terminal Aerodrome Forecast
Issued by NWS

Current Version | Previous Version | Graphics & Text | Print | Product List | Glossary On
Versions: 1 2 3 4 5 6 7 8 9 10 11 12 13 14 15 16 17
192
FTUS41 KPBZ 262325
TAFMGW
TAF
KMGW 262325Z 2700/2724 00000KT P6SM SCT200
     FM271900 23004KT P6SM VCTS BKN045CB=

USA.gov is the U.S. government's official web portal to all federal, state and local government web resources and services.